sensor_id;sensor_type;location;lat;lon;timestamp;temperature;humidity
15452;DHT22;7827;53.594;9.938;2022-12-29T00:00:18;8.60;99.90
15452;DHT22;7827;53.594;9.938;2022-12-29T00:02:46;8.50;99.90
15452;DHT22;7827;53.594;9.938;2022-12-29T00:05:15;8.50;99.90
15452;DHT22;7827;53.594;9.938;2022-12-29T00:07:43;8.50;99.90
15452;DHT22;7827;53.594;9.938;2022-12-29T00:10:11;8.50;99.90
15452;DHT22;7827;53.594;9.938;2022-12-29T00:12:39;8.60;99.90
15452;DHT22;7827;53.594;9.938;2022-12-29T00:15:26;8.60;99.90
15452;DHT22;7827;53.594;9.938;2022-12-29T00:18:07;8.60;99.90
15452;DHT22;7827;53.594;9.938;2022-12-29T00:20:36;8.70;99.90
15452;DHT22;7827;53.594;9.938;2022-12-29T00:23:23;8.70;99.90
15452;DHT22;7827;53.594;9.938;2022-12-29T00:26:13;8.70;99.90
15452;DHT22;7827;53.594;9.938;2022-12-29T00:29:00;8.70;99.90
15452;DHT22;7827;53.594;9.938;2022-12-29T00:31:49;8.80;99.90
15452;DHT22;7827;53.594;9.938;2022-12-29T00:34:35;8.80;99.90
15452;DHT22;7827;53.594;9.938;2022-12-29T00:37:47;8.80;99.90
15452;DHT22;7827;53.594;9.938;2022-12-29T00:40:33;8.80;99.90
15452;DHT22;7827;53.594;9.938;2022-12-29T00:43:20;8.80;99.90
15452;DHT22;7827;53.594;9.938;2022-12-29T00:46:06;8.80;99.90
15452;DHT22;7827;53.594;9.938;2022-12-29T00:48:41;8.90;99.90
15452;DHT22;7827;53.594;9.938;2022-12-29T00:51:27;8.90;99.90
15452;DHT22;7827;53.594;9.938;2022-12-29T00:53:55;8.90;99.90
15452;DHT22;7827;53.594;9.938;2022-12-29T00:56:23;8.90;99.90
15452;DHT22;7827;53.594;9.938;2022-12-29T00:58:52;9.00;99.90
15452;DHT22;7827;53.594;9.938;2022-12-29T01:01:20;9.00;99.90
15452;DHT22;7827;53.594;9.938;2022-12-29T01:03:50;9.00;99.90
15452;DHT22;7827;53.594;9.938;2022-12-29T01:06:19;9.00;99.90
15452;DHT22;7827;53.594;9.938;2022-12-29T01:08:47;9.00;99.90
15452;DHT22;7827;53.594;9.938;2022-12-29T01:11:36;9.00;99.90
15452;DHT22;7827;53.594;9.938;2022-12-29T01:14:04;9.00;99.90
15452;DHT22;7827;53.594;9.938;2022-12-29T01:16:33;9.00;99.90
15452;DHT22;7827;53.594;9.938;2022-12-29T01:19:04;9.00;99.90
15452;DHT22;7827;53.594;9.938;2022-12-29T01:21:33;9.10;99.90
15452;DHT22;7827;53.594;9.938;2022-12-29T01:24:01;9.10;99.90
15452;DHT22;7827;53.594;9.938;2022-12-29T01:26:30;9.10;99.90
15452;DHT22;7827;53.594;9.938;2022-12-29T01:28:59;9.10;99.90
15452;DHT22;7827;53.594;9.938;2022-12-29T01:31:28;9.20;99.90
15452;DHT22;7827;53.594;9.938;2022-12-29T01:33:56;9.20;99.90
15452;DHT22;7827;53.594;9.938;2022-12-29T01:36:26;9.20;99.90
15452;DHT22;7827;53.594;9.938;2022-12-29T01:38:55;9.20;99.90
15452;DHT22;7827;53.594;9.938;2022-12-29T01:41:24;9.20;99.90
15452;DHT22;7827;53.594;9.938;2022-12-29T01:43:54;9.30;99.90
15452;DHT22;7827;53.594;9.938;2022-12-29T01:46:27;9.30;99.90
15452;DHT22;7827;53.594;9.938;2022-12-29T01:49:04;9.30;99.90
15452;DHT22;7827;53.594;9.938;2022-12-29T01:51:43;9.30;99.90
15452;DHT22;7827;53.594;9.938;2022-12-29T01:54:18;9.20;99.90
15452;DHT22;7827;53.594;9.938;2022-12-29T01:56:55;9.30;99.90
15452;DHT22;7827;53.594;9.938;2022-12-29T01:59:32;9.20;99.90
15452;DHT22;7827;53.594;9.938;2022-12-29T02:02:02;9.20;99.90
15452;DHT22;7827;53.594;9.938;2022-12-29T02:04:32;9.30;99.90
15452;DHT22;7827;53.594;9.938;2022-12-29T02:07:05;9.30;99.90
15452;DHT22;7827;53.594;9.938;2022-12-29T02:09:37;9.30;99.90
15452;DHT22;7827;53.594;9.938;2022-12-29T02:12:06;9.30;99.90
15452;DHT22;7827;53.594;9.938;2022-12-29T02:14:35;9.30;99.90
15452;DHT22;7827;53.594;9.938;2022-12-29T02:17:08;9.30;99.90
15452;DHT22;7827;53.594;9.938;2022-12-29T02:23:11;9.40;99.90
15452;DHT22;7827;53.594;9.938;2022-12-29T02:26:10;9.40;99.90
15452;DHT22;7827;53.594;9.938;2022-12-29T02:32:26;9.50;99.90
15452;DHT22;7827;53.594;9.938;2022-12-29T02:35:08;9.50;99.90
15452;DHT22;7827;53.594;9.938;2022-12-29T02:37:55;9.50;99.90
15452;DHT22;7827;53.594;9.938;2022-12-29T02:40:34;9.60;99.90
15452;DHT22;7827;53.594;9.938;2022-12-29T02:43:15;9.60;99.90
15452;DHT22;7827;53.594;9.938;2022-12-29T02:45:54;9.60;99.90
15452;DHT22;7827;53.594;9.938;2022-12-29T02:48:29;9.70;99.90
15452;DHT22;7827;53.594;9.938;2022-12-29T02:51:02;9.70;99.90
15452;DHT22;7827;53.594;9.938;2022-12-29T02:53:33;9.70;99.90
15452;DHT22;7827;53.594;9.938;2022-12-29T02:56:22;9.70;99.90
15452;DHT22;7827;53.594;9.938;2022-12-29T02:58:51;9.80;99.90
15452;DHT22;7827;53.594;9.938;2022-12-29T03:01:30;9.90;99.90
15452;DHT22;7827;53.594;9.938;2022-12-29T03:04:52;9.80;99.90
15452;DHT22;7827;53.594;9.938;2022-12-29T03:07:40;9.90;99.90
15452;DHT22;7827;53.594;9.938;2022-12-29T03:10:24;9.90;99.90
15452;DHT22;7827;53.594;9.938;2022-12-29T03:13:04;9.90;99.90
15452;DHT22;7827;53.594;9.938;2022-12-29T03:16:02;10.00;99.90
15452;DHT22;7827;53.594;9.938;2022-12-29T03:18:41;10.00;99.90
15452;DHT22;7827;53.594;9.938;2022-12-29T03:21:22;10.00;99.90
15452;DHT22;7827;53.594;9.938;2022-12-29T03:24:15;9.90;99.90
15452;DHT22;7827;53.594;9.938;2022-12-29T03:26:48;9.90;99.90
15452;DHT22;7827;53.594;9.938;2022-12-29T03:29:20;9.90;99.90
15452;DHT22;7827;53.594;9.938;2022-12-29T03:31:50;10.00;99.90
15452;DHT22;7827;53.594;9.938;2022-12-29T03:34:21;10.00;99.90
15452;DHT22;7827;53.594;9.938;2022-12-29T03:36:55;10.00;99.90
15452;DHT22;7827;53.594;9.938;2022-12-29T03:39:28;10.00;99.90
15452;DHT22;7827;53.594;9.938;2022-12-29T03:42:01;9.90;99.90
15452;DHT22;7827;53.594;9.938;2022-12-29T03:44:35;10.00;99.90
15452;DHT22;7827;53.594;9.938;2022-12-29T03:47:06;10.00;99.90
15452;DHT22;7827;53.594;9.938;2022-12-29T03:49:35;10.00;99.90
15452;DHT22;7827;53.594;9.938;2022-12-29T03:52:05;10.00;99.90
15452;DHT22;7827;53.594;9.938;2022-12-29T03:54:40;10.00;99.90
15452;DHT22;7827;53.594;9.938;2022-12-29T03:57:09;10.00;99.90
15452;DHT22;7827;53.594;9.938;2022-12-29T03:59:55;10.10;99.90
15452;DHT22;7827;53.594;9.938;2022-12-29T04:02:23;10.10;99.90
15452;DHT22;7827;53.594;9.938;2022-12-29T04:04:53;10.10;99.90
15452;DHT22;7827;53.594;9.938;2022-12-29T04:07:23;10.10;99.90
15452;DHT22;7827;53.594;9.938;2022-12-29T04:09:53;10.10;99.90
15452;DHT22;7827;53.594;9.938;2022-12-29T04:12:24;10.20;99.90
15452;DHT22;7827;53.594;9.938;2022-12-29T04:14:52;10.20;99.90
15452;DHT22;7827;53.594;9.938;2022-12-29T04:17:21;10.20;99.90
15452;DHT22;7827;53.594;9.938;2022-12-29T04:19:52;10.20;99.90
15452;DHT22;7827;53.594;9.938;2022-12-29T04:22:43;10.20;99.90
15452;DHT22;7827;53.594;9.938;2022-12-29T04:25:12;10.30;99.90
15452;DHT22;7827;53.594;9.938;2022-12-29T04:27:41;10.30;99.90
15452;DHT22;7827;53.594;9.938;2022-12-29T04:30:39;10.30;99.90
15452;DHT22;7827;53.594;9.938;2022-12-29T04:33:21;10.30;99.90
15452;DHT22;7827;53.594;9.938;2022-12-29T04:35:50;10.30;99.90
15452;DHT22;7827;53.594;9.938;2022-12-29T04:38:22;10.40;99.90
15452;DHT22;7827;53.594;9.938;2022-12-29T04:40:52;10.40;99.90
15452;DHT22;7827;53.594;9.938;2022-12-29T04:43:22;10.50;99.90
15452;DHT22;7827;53.594;9.938;2022-12-29T04:46:20;10.50;99.90
15452;DHT22;7827;53.594;9.938;2022-12-29T04:48:56;10.50;99.90
15452;DHT22;7827;53.594;9.938;2022-12-29T04:51:45;10.50;99.90
15452;DHT22;7827;53.594;9.938;2022-12-29T04:54:16;10.50;99.90
15452;DHT22;7827;53.594;9.938;2022-12-29T04:56:50;10.40;99.90
15452;DHT22;7827;53.594;9.938;2022-12-29T04:59:18;10.50;99.90
15452;DHT22;7827;53.594;9.938;2022-12-29T05:01:50;10.50;99.90
15452;DHT22;7827;53.594;9.938;2022-12-29T05:04:18;10.40;99.90
15452;DHT22;7827;53.594;9.938;2022-12-29T05:06:47;10.40;99.90
15452;DHT22;7827;53.594;9.938;2022-12-29T05:09:17;10.30;99.90
15452;DHT22;7827;53.594;9.938;2022-12-29T05:11:46;10.30;99.90
15452;DHT22;7827;53.594;9.938;2022-12-29T05:14:15;10.30;99.90
15452;DHT22;7827;53.594;9.938;2022-12-29T05:16:44;10.30;99.90
15452;DHT22;7827;53.594;9.938;2022-12-29T05:19:12;10.30;99.90
15452;DHT22;7827;53.594;9.938;2022-12-29T05:21:41;10.30;99.90
15452;DHT22;7827;53.594;9.938;2022-12-29T05:24:10;10.30;99.90
15452;DHT22;7827;53.594;9.938;2022-12-29T05:26:39;10.30;99.90
15452;DHT22;7827;53.594;9.938;2022-12-29T05:29:17;10.30;99.90
15452;DHT22;7827;53.594;9.938;2022-12-29T05:31:46;10.30;99.90
15452;DHT22;7827;53.594;9.938;2022-12-29T05:34:15;10.30;99.90
15452;DHT22;7827;53.594;9.938;2022-12-29T05:36:44;10.30;99.90
15452;DHT22;7827;53.594;9.938;2022-12-29T05:39:14;10.30;99.90
15452;DHT22;7827;53.594;9.938;2022-12-29T05:41:48;10.30;99.90
15452;DHT22;7827;53.594;9.938;2022-12-29T05:44:39;10.30;99.90
15452;DHT22;7827;53.594;9.938;2022-12-29T05:47:34;10.30;99.90
15452;DHT22;7827;53.594;9.938;2022-12-29T05:50:21;10.40;99.90
15452;DHT22;7827;53.594;9.938;2022-12-29T05:53:07;10.40;99.90
15452;DHT22;7827;53.594;9.938;2022-12-29T05:55:37;10.40;99.90
15452;DHT22;7827;53.594;9.938;2022-12-29T05:58:16;10.40;99.90
15452;DHT22;7827;53.594;9.938;2022-12-29T06:00:46;10.40;99.90
15452;DHT22;7827;53.594;9.938;2022-12-29T06:03:15;10.40;99.90
15452;DHT22;7827;53.594;9.938;2022-12-29T06:05:44;10.40;99.90
15452;DHT22;7827;53.594;9.938;2022-12-29T06:08:15;10.40;99.90
15452;DHT22;7827;53.594;9.938;2022-12-29T06:10:43;10.40;99.90
15452;DHT22;7827;53.594;9.938;2022-12-29T06:13:12;10.50;99.90
15452;DHT22;7827;53.594;9.938;2022-12-29T06:15:44;10.50;99.90
15452;DHT22;7827;53.594;9.938;2022-12-29T06:18:16;10.60;99.90
15452;DHT22;7827;53.594;9.938;2022-12-29T06:20:47;10.60;99.90
15452;DHT22;7827;53.594;9.938;2022-12-29T06:23:17;10.60;99.90
15452;DHT22;7827;53.594;9.938;2022-12-29T06:25:47;10.60;99.90
15452;DHT22;7827;53.594;9.938;2022-12-29T06:28:17;10.60;99.90
15452;DHT22;7827;53.594;9.938;2022-12-29T06:30:46;10.70;99.90
15452;DHT22;7827;53.594;9.938;2022-12-29T06:33:16;10.60;99.90
15452;DHT22;7827;53.594;9.938;2022-12-29T06:35:45;10.70;99.90
15452;DHT22;7827;53.594;9.938;2022-12-29T06:38:14;10.60;99.90
15452;DHT22;7827;53.594;9.938;2022-12-29T06:40:43;10.50;99.90
15452;DHT22;7827;53.594;9.938;2022-12-29T06:43:36;10.50;99.90
15452;DHT22;7827;53.594;9.938;2022-12-29T06:46:14;10.40;99.90
15452;DHT22;7827;53.594;9.938;2022-12-29T06:48:43;10.40;99.90
15452;DHT22;7827;53.594;9.938;2022-12-29T06:51:11;10.30;99.90
15452;DHT22;7827;53.594;9.938;2022-12-29T06:53:40;10.30;99.90
15452;DHT22;7827;53.594;9.938;2022-12-29T06:56:08;10.30;99.90
15452;DHT22;7827;53.594;9.938;2022-12-29T06:58:37;10.30;99.90
15452;DHT22;7827;53.594;9.938;2022-12-29T07:01:06;10.30;99.90
15452;DHT22;7827;53.594;9.938;2022-12-29T07:03:34;10.30;99.90
15452;DHT22;7827;53.594;9.938;2022-12-29T07:06:03;10.30;99.90
15452;DHT22;7827;53.594;9.938;2022-12-29T07:08:32;10.40;99.90
15452;DHT22;7827;53.594;9.938;2022-12-29T07:11:01;10.40;99.90
15452;DHT22;7827;53.594;9.938;2022-12-29T07:13:29;10.30;99.90
15452;DHT22;7827;53.594;9.938;2022-12-29T07:15:59;10.40;99.90
15452;DHT22;7827;53.594;9.938;2022-12-29T07:18:27;10.40;99.90
15452;DHT22;7827;53.594;9.938;2022-12-29T07:20:55;10.40;99.90
15452;DHT22;7827;53.594;9.938;2022-12-29T07:23:24;10.40;99.90
15452;DHT22;7827;53.594;9.938;2022-12-29T07:25:59;10.40;99.90
15452;DHT22;7827;53.594;9.938;2022-12-29T07:28:28;10.40;99.90
15452;DHT22;7827;53.594;9.938;2022-12-29T07:30:56;10.30;99.90
15452;DHT22;7827;53.594;9.938;2022-12-29T07:33:28;10.30;99.90
15452;DHT22;7827;53.594;9.938;2022-12-29T07:35:57;10.30;99.90
15452;DHT22;7827;53.594;9.938;2022-12-29T07:38:26;10.30;99.90
15452;DHT22;7827;53.594;9.938;2022-12-29T07:40:57;10.30;99.90
15452;DHT22;7827;53.594;9.938;2022-12-29T07:43:26;10.30;99.90
15452;DHT22;7827;53.594;9.938;2022-12-29T07:46:13;10.40;99.90
15452;DHT22;7827;53.594;9.938;2022-12-29T07:49:02;10.30;99.90
15452;DHT22;7827;53.594;9.938;2022-12-29T07:51:31;10.40;99.90
15452;DHT22;7827;53.594;9.938;2022-12-29T07:53:59;10.30;99.90
15452;DHT22;7827;53.594;9.938;2022-12-29T07:56:27;10.30;99.90
15452;DHT22;7827;53.594;9.938;2022-12-29T07:58:56;10.40;99.90
15452;DHT22;7827;53.594;9.938;2022-12-29T08:01:24;10.40;99.90
15452;DHT22;7827;53.594;9.938;2022-12-29T08:03:53;10.40;99.90
15452;DHT22;7827;53.594;9.938;2022-12-29T08:06:25;10.40;99.90
15452;DHT22;7827;53.594;9.938;2022-12-29T08:08:53;10.40;99.90
15452;DHT22;7827;53.594;9.938;2022-12-29T08:11:23;10.40;99.90
15452;DHT22;7827;53.594;9.938;2022-12-29T08:13:52;10.40;99.90
15452;DHT22;7827;53.594;9.938;2022-12-29T08:16:20;10.40;99.90
15452;DHT22;7827;53.594;9.938;2022-12-29T08:18:49;10.40;99.90
15452;DHT22;7827;53.594;9.938;2022-12-29T08:21:17;10.30;99.90
15452;DHT22;7827;53.594;9.938;2022-12-29T08:23:47;10.30;99.90
15452;DHT22;7827;53.594;9.938;2022-12-29T08:26:15;10.30;99.90
15452;DHT22;7827;53.594;9.938;2022-12-29T08:28:44;10.30;99.90
15452;DHT22;7827;53.594;9.938;2022-12-29T08:31:13;10.20;99.90
15452;DHT22;7827;53.594;9.938;2022-12-29T08:33:41;10.20;99.90
15452;DHT22;7827;53.594;9.938;2022-12-29T08:36:09;10.20;99.90
15452;DHT22;7827;53.594;9.938;2022-12-29T08:38:38;10.30;99.90
15452;DHT22;7827;53.594;9.938;2022-12-29T08:41:08;10.30;99.90
15452;DHT22;7827;53.594;9.938;2022-12-29T08:43:36;10.30;99.90
15452;DHT22;7827;53.594;9.938;2022-12-29T08:46:05;10.30;99.90
15452;DHT22;7827;53.594;9.938;2022-12-29T08:48:33;10.30;99.90
15452;DHT22;7827;53.594;9.938;2022-12-29T08:51:01;10.40;99.90
15452;DHT22;7827;53.594;9.938;2022-12-29T08:53:30;10.40;99.90
15452;DHT22;7827;53.594;9.938;2022-12-29T08:55:59;10.40;99.90
15452;DHT22;7827;53.594;9.938;2022-12-29T08:58:40;10.40;99.90
15452;DHT22;7827;53.594;9.938;2022-12-29T09:01:09;10.40;99.90
15452;DHT22;7827;53.594;9.938;2022-12-29T09:03:38;10.50;99.90
15452;DHT22;7827;53.594;9.938;2022-12-29T09:06:26;10.50;99.90
15452;DHT22;7827;53.594;9.938;2022-12-29T09:08:57;10.70;99.90
15452;DHT22;7827;53.594;9.938;2022-12-29T09:11:25;10.70;99.90
15452;DHT22;7827;53.594;9.938;2022-12-29T09:13:55;10.70;99.90
15452;DHT22;7827;53.594;9.938;2022-12-29T09:16:24;10.80;99.90
15452;DHT22;7827;53.594;9.938;2022-12-29T09:18:53;10.80;99.90
15452;DHT22;7827;53.594;9.938;2022-12-29T09:21:22;10.80;99.90
15452;DHT22;7827;53.594;9.938;2022-12-29T09:23:50;10.80;99.90
15452;DHT22;7827;53.594;9.938;2022-12-29T09:26:18;10.80;99.90
15452;DHT22;7827;53.594;9.938;2022-12-29T09:28:46;10.80;99.90
15452;DHT22;7827;53.594;9.938;2022-12-29T09:31:16;10.80;99.90
15452;DHT22;7827;53.594;9.938;2022-12-29T09:33:44;10.90;99.90
15452;DHT22;7827;53.594;9.938;2022-12-29T09:36:13;10.90;99.90
15452;DHT22;7827;53.594;9.938;2022-12-29T09:38:41;11.00;99.90
15452;DHT22;7827;53.594;9.938;2022-12-29T09:41:14;10.90;99.90
15452;DHT22;7827;53.594;9.938;2022-12-29T09:43:57;11.00;99.90
15452;DHT22;7827;53.594;9.938;2022-12-29T09:46:35;10.90;99.90
15452;DHT22;7827;53.594;9.938;2022-12-29T09:49:16;10.80;99.90
15452;DHT22;7827;53.594;9.938;2022-12-29T09:51:54;10.70;99.90
15452;DHT22;7827;53.594;9.938;2022-12-29T09:54:36;10.70;99.90
15452;DHT22;7827;53.594;9.938;2022-12-29T09:57:18;10.80;99.90
15452;DHT22;7827;53.594;9.938;2022-12-29T09:59:52;10.70;99.90
15452;DHT22;7827;53.594;9.938;2022-12-29T10:02:38;10.70;99.90
15452;DHT22;7827;53.594;9.938;2022-12-29T10:05:29;10.70;99.90
15452;DHT22;7827;53.594;9.938;2022-12-29T10:08:19;10.80;99.90
15452;DHT22;7827;53.594;9.938;2022-12-29T10:11:03;10.70;99.90
15452;DHT22;7827;53.594;9.938;2022-12-29T10:13:46;10.80;99.90
15452;DHT22;7827;53.594;9.938;2022-12-29T10:16:34;10.80;99.90
15452;DHT22;7827;53.594;9.938;2022-12-29T10:19:31;10.70;99.90
15452;DHT22;7827;53.594;9.938;2022-12-29T10:22:24;10.80;99.90
15452;DHT22;7827;53.594;9.938;2022-12-29T10:25:06;10.70;99.90
15452;DHT22;7827;53.594;9.938;2022-12-29T10:27:41;10.70;99.90
15452;DHT22;7827;53.594;9.938;2022-12-29T10:30:12;10.70;99.90
15452;DHT22;7827;53.594;9.938;2022-12-29T10:32:46;10.70;99.90
15452;DHT22;7827;53.594;9.938;2022-12-29T10:35:22;10.70;99.90
15452;DHT22;7827;53.594;9.938;2022-12-29T10:37:56;10.70;99.90
15452;DHT22;7827;53.594;9.938;2022-12-29T10:40:33;10.70;99.90
15452;DHT22;7827;53.594;9.938;2022-12-29T10:43:22;10.70;99.90
15452;DHT22;7827;53.594;9.938;2022-12-29T10:45:56;10.70;99.90
15452;DHT22;7827;53.594;9.938;2022-12-29T10:48:30;10.70;99.90
15452;DHT22;7827;53.594;9.938;2022-12-29T10:51:02;10.80;99.90
15452;DHT22;7827;53.594;9.938;2022-12-29T10:53:37;10.80;99.90
15452;DHT22;7827;53.594;9.938;2022-12-29T10:56:15;11.00;99.90
15452;DHT22;7827;53.594;9.938;2022-12-29T10:58:50;11.10;99.90
15452;DHT22;7827;53.594;9.938;2022-12-29T11:01:22;11.10;99.90
15452;DHT22;7827;53.594;9.938;2022-12-29T11:04:02;11.10;99.90
15452;DHT22;7827;53.594;9.938;2022-12-29T11:06:34;11.10;99.90
15452;DHT22;7827;53.594;9.938;2022-12-29T11:09:12;11.10;99.90
15452;DHT22;7827;53.594;9.938;2022-12-29T11:11:43;11.00;99.90
15452;DHT22;7827;53.594;9.938;2022-12-29T11:14:14;10.90;99.90
15452;DHT22;7827;53.594;9.938;2022-12-29T11:16:56;11.00;99.90
15452;DHT22;7827;53.594;9.938;2022-12-29T11:19:27;11.10;99.90
15452;DHT22;7827;53.594;9.938;2022-12-29T11:22:14;11.10;99.90
15452;DHT22;7827;53.594;9.938;2022-12-29T11:24:50;11.20;99.90
15452;DHT22;7827;53.594;9.938;2022-12-29T11:27:21;11.20;99.90
15452;DHT22;7827;53.594;9.938;2022-12-29T11:29:52;11.20;99.90
15452;DHT22;7827;53.594;9.938;2022-12-29T11:32:23;11.10;99.90
15452;DHT22;7827;53.594;9.938;2022-12-29T11:34:56;11.20;99.90
15452;DHT22;7827;53.594;9.938;2022-12-29T11:37:29;11.10;99.90
15452;DHT22;7827;53.594;9.938;2022-12-29T11:40:02;11.10;99.90
15452;DHT22;7827;53.594;9.938;2022-12-29T11:42:36;11.10;99.90
15452;DHT22;7827;53.594;9.938;2022-12-29T11:45:12;11.10;99.90
15452;DHT22;7827;53.594;9.938;2022-12-29T11:47:45;10.90;99.90
15452;DHT22;7827;53.594;9.938;2022-12-29T11:50:18;11.00;99.90
15452;DHT22;7827;53.594;9.938;2022-12-29T11:52:57;11.00;99.90
15452;DHT22;7827;53.594;9.938;2022-12-29T11:55:29;11.00;99.90
15452;DHT22;7827;53.594;9.938;2022-12-29T11:58:01;10.90;99.90
15452;DHT22;7827;53.594;9.938;2022-12-29T12:00:34;10.90;99.90
15452;DHT22;7827;53.594;9.938;2022-12-29T12:03:13;10.90;99.90
15452;DHT22;7827;53.594;9.938;2022-12-29T12:05:48;10.90;99.90
15452;DHT22;7827;53.594;9.938;2022-12-29T12:08:31;10.90;99.90
15452;DHT22;7827;53.594;9.938;2022-12-29T12:11:07;10.90;99.90
15452;DHT22;7827;53.594;9.938;2022-12-29T12:13:43;10.80;99.90
15452;DHT22;7827;53.594;9.938;2022-12-29T12:16:27;10.80;99.90
15452;DHT22;7827;53.594;9.938;2022-12-29T12:19:04;10.80;99.90
15452;DHT22;7827;53.594;9.938;2022-12-29T12:21:45;10.70;99.90
15452;DHT22;7827;53.594;9.938;2022-12-29T12:24:35;10.70;99.90
15452;DHT22;7827;53.594;9.938;2022-12-29T12:27:12;10.70;99.90
15452;DHT22;7827;53.594;9.938;2022-12-29T12:29:52;10.70;99.90
15452;DHT22;7827;53.594;9.938;2022-12-29T12:32:34;10.70;99.90
15452;DHT22;7827;53.594;9.938;2022-12-29T12:35:11;10.60;99.90
15452;DHT22;7827;53.594;9.938;2022-12-29T12:38:06;10.60;99.90
15452;DHT22;7827;53.594;9.938;2022-12-29T12:40:59;10.70;99.90
15452;DHT22;7827;53.594;9.938;2022-12-29T12:43:43;10.70;99.90
15452;DHT22;7827;53.594;9.938;2022-12-29T12:46:23;10.60;99.90
15452;DHT22;7827;53.594;9.938;2022-12-29T12:49:21;10.60;99.90
15452;DHT22;7827;53.594;9.938;2022-12-29T12:52:06;10.70;99.90
15452;DHT22;7827;53.594;9.938;2022-12-29T12:54:58;10.70;99.90
15452;DHT22;7827;53.594;9.938;2022-12-29T12:57:47;10.70;99.90
15452;DHT22;7827;53.594;9.938;2022-12-29T13:00:21;10.70;99.90
15452;DHT22;7827;53.594;9.938;2022-12-29T13:03:01;10.70;99.90
15452;DHT22;7827;53.594;9.938;2022-12-29T13:05:55;10.70;99.90
15452;DHT22;7827;53.594;9.938;2022-12-29T13:11:51;10.70;99.90
15452;DHT22;7827;53.594;9.938;2022-12-29T13:14:41;10.70;99.90
15452;DHT22;7827;53.594;9.938;2022-12-29T13:17:24;10.80;99.90
15452;DHT22;7827;53.594;9.938;2022-12-29T13:20:03;10.80;99.90
15452;DHT22;7827;53.594;9.938;2022-12-29T13:22:41;10.70;99.90
15452;DHT22;7827;53.594;9.938;2022-12-29T13:25:28;10.60;99.90
15452;DHT22;7827;53.594;9.938;2022-12-29T13:28:06;10.60;99.90
15452;DHT22;7827;53.594;9.938;2022-12-29T13:30:51;10.40;99.90
15452;DHT22;7827;53.594;9.938;2022-12-29T13:33:33;10.20;99.90
15452;DHT22;7827;53.594;9.938;2022-12-29T13:36:20;10.20;99.90
15452;DHT22;7827;53.594;9.938;2022-12-29T13:38:58;10.00;99.90
15452;DHT22;7827;53.594;9.938;2022-12-29T13:41:34;9.90;99.90
15452;DHT22;7827;53.594;9.938;2022-12-29T13:44:09;9.80;99.90
15452;DHT22;7827;53.594;9.938;2022-12-29T13:46:45;9.70;99.90
15452;DHT22;7827;53.594;9.938;2022-12-29T13:49:18;9.70;99.90
15452;DHT22;7827;53.594;9.938;2022-12-29T13:51:50;9.70;99.90
15452;DHT22;7827;53.594;9.938;2022-12-29T13:54:30;9.70;99.90
15452;DHT22;7827;53.594;9.938;2022-12-29T13:57:10;9.70;99.90
15452;DHT22;7827;53.594;9.938;2022-12-29T13:59:57;9.60;99.90
15452;DHT22;7827;53.594;9.938;2022-12-29T14:02:46;9.60;99.90
15452;DHT22;7827;53.594;9.938;2022-12-29T14:05:31;9.50;99.90
15452;DHT22;7827;53.594;9.938;2022-12-29T14:08:02;8.90;99.90
15452;DHT22;7827;53.594;9.938;2022-12-29T14:10:34;8.60;99.90
15452;DHT22;7827;53.594;9.938;2022-12-29T14:13:10;8.40;99.90
15452;DHT22;7827;53.594;9.938;2022-12-29T14:15:42;8.20;99.90
15452;DHT22;7827;53.594;9.938;2022-12-29T14:18:16;8.20;99.90
15452;DHT22;7827;53.594;9.938;2022-12-29T14:20:52;8.20;99.90
15452;DHT22;7827;53.594;9.938;2022-12-29T14:23:36;8.20;99.90
15452;DHT22;7827;53.594;9.938;2022-12-29T14:26:13;8.10;99.90
15452;DHT22;7827;53.594;9.938;2022-12-29T14:28:46;8.10;99.90
15452;DHT22;7827;53.594;9.938;2022-12-29T14:31:35;8.10;99.90
15452;DHT22;7827;53.594;9.938;2022-12-29T14:34:29;8.10;99.90
15452;DHT22;7827;53.594;9.938;2022-12-29T14:37:23;8.10;99.90
15452;DHT22;7827;53.594;9.938;2022-12-29T14:40:04;8.20;99.90
15452;DHT22;7827;53.594;9.938;2022-12-29T14:42:34;8.20;99.90
15452;DHT22;7827;53.594;9.938;2022-12-29T14:45:06;8.20;99.90
15452;DHT22;7827;53.594;9.938;2022-12-29T14:47:51;8.20;99.90
15452;DHT22;7827;53.594;9.938;2022-12-29T14:50:24;8.30;99.90
15452;DHT22;7827;53.594;9.938;2022-12-29T14:53:03;8.20;99.90
15452;DHT22;7827;53.594;9.938;2022-12-29T14:55:38;8.30;99.90
15452;DHT22;7827;53.594;9.938;2022-12-29T14:58:15;8.30;99.90
15452;DHT22;7827;53.594;9.938;2022-12-29T15:00:47;8.30;99.90
15452;DHT22;7827;53.594;9.938;2022-12-29T15:03:19;8.30;99.90
15452;DHT22;7827;53.594;9.938;2022-12-29T15:05:53;8.30;99.90
15452;DHT22;7827;53.594;9.938;2022-12-29T15:08:25;8.30;99.90
15452;DHT22;7827;53.594;9.938;2022-12-29T15:11:01;8.40;99.90
15452;DHT22;7827;53.594;9.938;2022-12-29T15:13:40;8.30;99.90
15452;DHT22;7827;53.594;9.938;2022-12-29T15:16:22;8.30;99.90
15452;DHT22;7827;53.594;9.938;2022-12-29T15:18:51;8.30;99.90
15452;DHT22;7827;53.594;9.938;2022-12-29T15:21:24;8.30;99.90
15452;DHT22;7827;53.594;9.938;2022-12-29T15:23:54;8.30;99.90
15452;DHT22;7827;53.594;9.938;2022-12-29T15:26:23;8.40;99.90
15452;DHT22;7827;53.594;9.938;2022-12-29T15:29:03;8.40;99.90
15452;DHT22;7827;53.594;9.938;2022-12-29T15:31:32;8.40;99.90
15452;DHT22;7827;53.594;9.938;2022-12-29T15:34:07;8.40;99.90
15452;DHT22;7827;53.594;9.938;2022-12-29T15:36:40;8.40;99.90
15452;DHT22;7827;53.594;9.938;2022-12-29T15:39:18;8.40;99.90
15452;DHT22;7827;53.594;9.938;2022-12-29T15:41:50;8.40;99.90
15452;DHT22;7827;53.594;9.938;2022-12-29T15:44:35;8.40;99.90
15452;DHT22;7827;53.594;9.938;2022-12-29T15:47:12;8.40;99.90
15452;DHT22;7827;53.594;9.938;2022-12-29T15:49:47;8.40;99.90
15452;DHT22;7827;53.594;9.938;2022-12-29T15:52:20;8.40;99.90
15452;DHT22;7827;53.594;9.938;2022-12-29T15:54:52;8.40;99.90
15452;DHT22;7827;53.594;9.938;2022-12-29T15:57:23;8.40;99.90
15452;DHT22;7827;53.594;9.938;2022-12-29T15:59:52;8.50;99.90
15452;DHT22;7827;53.594;9.938;2022-12-29T16:02:22;8.40;99.90
15452;DHT22;7827;53.594;9.938;2022-12-29T16:04:52;8.40;99.90
15452;DHT22;7827;53.594;9.938;2022-12-29T16:07:52;8.40;99.90
15452;DHT22;7827;53.594;9.938;2022-12-29T16:10:26;8.30;99.90
15452;DHT22;7827;53.594;9.938;2022-12-29T16:13:05;8.30;99.90
15452;DHT22;7827;53.594;9.938;2022-12-29T16:15:41;8.20;99.90
15452;DHT22;7827;53.594;9.938;2022-12-29T16:18:22;8.20;99.90
15452;DHT22;7827;53.594;9.938;2022-12-29T16:20:53;8.20;99.90
15452;DHT22;7827;53.594;9.938;2022-12-29T16:23:27;8.20;99.90
15452;DHT22;7827;53.594;9.938;2022-12-29T16:25:58;8.20;99.90
15452;DHT22;7827;53.594;9.938;2022-12-29T16:28:34;8.10;99.90
15452;DHT22;7827;53.594;9.938;2022-12-29T16:31:05;8.10;99.90
15452;DHT22;7827;53.594;9.938;2022-12-29T16:33:47;8.10;99.90
15452;DHT22;7827;53.594;9.938;2022-12-29T16:36:24;8.10;99.90
15452;DHT22;7827;53.594;9.938;2022-12-29T16:39:20;8.10;99.90
15452;DHT22;7827;53.594;9.938;2022-12-29T16:41:53;8.10;99.90
15452;DHT22;7827;53.594;9.938;2022-12-29T16:44:23;8.10;99.90
15452;DHT22;7827;53.594;9.938;2022-12-29T16:47:15;8.10;99.90
15452;DHT22;7827;53.594;9.938;2022-12-29T16:49:51;8.00;99.90
15452;DHT22;7827;53.594;9.938;2022-12-29T16:52:23;8.00;99.90
15452;DHT22;7827;53.594;9.938;2022-12-29T16:55:01;8.10;99.90